createdAt,value
2018-11-27T00:02:01.586Z,17.23
2018-11-27T00:04:29.145Z,19.23
2018-11-27T00:06:56.607Z,14.87
2018-11-27T00:09:24.070Z,14.03
2018-11-27T00:11:52.357Z,15.80
2018-11-27T00:14:19.828Z,16.97
2018-11-27T00:16:47.301Z,14.97
2018-11-27T00:19:14.781Z,15.25
2018-11-27T00:21:43.135Z,17.17
2018-11-27T00:24:10.615Z,16.70
2018-11-27T00:26:38.073Z,17.67
2018-11-27T00:29:06.310Z,18.83
2018-11-27T00:31:33.757Z,15.70
2018-11-27T00:34:01.235Z,14.83
2018-11-27T00:36:28.698Z,17.40
2018-11-27T00:38:56.181Z,14.10
2018-11-27T00:41:23.648Z,15.20
2018-11-27T00:43:51.130Z,16.27
2018-11-27T00:46:19.366Z,13.13
2018-11-27T00:48:46.845Z,18.47
2018-11-27T00:51:14.302Z,15.97
2018-11-27T00:53:41.877Z,13.70
2018-11-27T00:56:10.838Z,14.07
2018-11-27T00:58:38.315Z,17.60
2018-11-27T01:01:05.779Z,14.60
2018-11-27T01:03:33.245Z,15.63
2018-11-27T01:06:00.813Z,14.87
2018-11-27T01:08:28.493Z,19.20
2018-11-27T01:10:55.958Z,15.67
2018-11-27T01:13:23.441Z,13.90
2018-11-27T01:15:51.679Z,14.27
2018-11-27T01:18:19.258Z,15.67
2018-11-27T01:20:46.812Z,14.37
2018-11-27T01:23:14.391Z,11.47
2018-11-27T01:25:41.876Z,16.17
2018-11-27T01:28:10.106Z,14.80
2018-11-27T01:30:37.666Z,16.77
2018-11-27T01:33:05.122Z,14.83
2018-11-27T01:35:32.586Z,15.13
2018-11-27T01:38:00.057Z,15.13
2018-11-27T01:40:27.531Z,13.37
2018-11-27T01:42:54.987Z,15.20
2018-11-27T01:45:22.452Z,13.02
2018-11-27T01:47:49.923Z,15.10
2018-11-27T01:50:18.940Z,15.17
2018-11-27T01:52:47.171Z,14.23
2018-11-27T01:55:14.642Z,14.60
2018-11-27T01:57:42.115Z,15.17
2018-11-27T02:00:09.575Z,14.00
2018-11-27T02:02:37.139Z,16.67
2018-11-27T02:05:04.684Z,15.17
2018-11-27T02:07:32.171Z,14.33
2018-11-27T02:09:59.627Z,13.63
2018-11-27T02:12:27.202Z,16.97
2018-11-27T02:14:54.658Z,14.80
2018-11-27T02:17:22.127Z,13.03
2018-11-27T02:19:49.585Z,17.53
2018-11-27T02:22:17.142Z,14.17
2018-11-27T02:24:44.612Z,15.53
2018-11-27T02:27:12.170Z,12.20
2018-11-27T02:29:39.627Z,13.57
2018-11-27T02:32:07.103Z,16.87
2018-11-27T02:34:34.567Z,14.67
2018-11-27T02:37:02.127Z,14.10
2018-11-27T02:39:29.605Z,14.97
2018-11-27T02:41:57.155Z,16.13
2018-11-27T02:44:24.718Z,16.10
2018-11-27T02:46:52.265Z,13.33
2018-11-27T02:49:19.764Z,16.27
2018-11-27T02:51:48.012Z,13.90
2018-11-27T02:54:15.475Z,15.97
2018-11-27T02:56:43.704Z,14.50
2018-11-27T02:59:11.216Z,14.47
2018-11-27T03:01:38.803Z,14.73
2018-11-27T03:04:07.045Z,14.70
2018-11-27T03:06:34.525Z,12.53
2018-11-27T03:09:02.090Z,16.77
2018-11-27T03:11:30.322Z,14.23
2018-11-27T03:13:57.775Z,12.10
2018-11-27T03:16:25.307Z,12.70
2018-11-27T03:18:52.802Z,15.40
2018-11-27T03:21:20.265Z,12.70
2018-11-27T03:23:47.775Z,16.63
2018-11-27T03:26:15.252Z,14.80
2018-11-27T03:28:43.486Z,14.30
2018-11-27T03:31:10.967Z,12.27
2018-11-27T03:33:38.430Z,15.50
2018-11-27T03:36:07.561Z,12.83
2018-11-27T03:38:35.113Z,13.13
2018-11-27T03:41:02.565Z,13.30
2018-11-27T03:43:30.032Z,13.73
2018-11-27T03:45:57.489Z,13.43
2018-11-27T03:48:24.967Z,13.20
2018-11-27T03:50:52.434Z,15.73
2018-11-27T03:53:19.895Z,12.20
2018-11-27T03:55:47.441Z,14.53
2018-11-27T03:58:14.904Z,12.77
2018-11-27T04:00:42.385Z,13.43
2018-11-27T04:03:10.630Z,14.63
2018-11-27T04:05:38.225Z,12.80
2018-11-27T04:08:05.681Z,12.40
2018-11-27T04:10:33.155Z,14.87
2018-11-27T04:13:01.409Z,14.17
2018-11-27T04:15:28.982Z,14.40
2018-11-27T04:17:57.151Z,14.97
2018-11-27T04:20:24.613Z,14.93
2018-11-27T04:22:52.078Z,12.53
2018-11-27T04:25:19.556Z,16.23
2018-11-27T04:27:47.020Z,13.27
2018-11-27T04:30:14.494Z,16.30
2018-11-27T04:32:42.749Z,13.60
2018-11-27T04:35:10.205Z,13.37
2018-11-27T04:37:37.764Z,16.43
2018-11-27T04:40:05.229Z,14.30
2018-11-27T04:42:32.678Z,13.80
2018-11-27T04:45:00.149Z,15.10
2018-11-27T04:47:27.610Z,14.50
2018-11-27T04:49:55.185Z,14.77
2018-11-27T04:52:22.661Z,16.27
2018-11-27T04:54:50.936Z,13.63
2018-11-27T04:57:19.174Z,12.68
2018-11-27T04:59:46.649Z,14.13
2018-11-27T05:02:14.139Z,14.90
2018-11-27T05:04:41.608Z,12.57
2018-11-27T05:07:09.837Z,12.50
2018-11-27T05:09:37.334Z,12.40
2018-11-27T05:12:04.889Z,15.97
2018-11-27T05:14:32.454Z,14.27
2018-11-27T05:16:59.911Z,13.83
2018-11-27T05:19:27.385Z,15.70
2018-11-27T05:21:56.485Z,14.37
2018-11-27T05:24:24.062Z,12.93
2018-11-27T05:26:52.299Z,15.33
2018-11-27T05:29:19.761Z,15.10
2018-11-27T05:31:47.232Z,16.87
2018-11-27T05:34:14.745Z,13.50
2018-11-27T05:36:42.981Z,15.10
2018-11-27T05:39:10.552Z,14.47
2018-11-27T05:41:38.115Z,14.00
2018-11-27T05:44:05.581Z,14.60
2018-11-27T05:46:33.033Z,13.93
2018-11-27T05:49:00.507Z,15.93
2018-11-27T05:51:27.974Z,15.03
2018-11-27T05:53:55.439Z,15.70
2018-11-27T05:56:22.898Z,13.07
2018-11-27T05:58:50.453Z,15.63
2018-11-27T06:01:17.911Z,15.50
2018-11-27T06:03:45.406Z,15.57
2018-11-27T06:06:13.625Z,13.50
2018-11-27T06:08:41.102Z,16.33
2018-11-27T06:11:08.562Z,15.50
2018-11-27T06:13:36.021Z,16.03
2018-11-27T06:16:04.529Z,14.07
2018-11-27T06:18:32.081Z,14.17
2018-11-27T06:20:59.570Z,14.23
2018-11-27T06:23:27.037Z,13.80
2018-11-27T06:25:55.270Z,16.67
2018-11-27T06:28:22.757Z,13.60
2018-11-27T06:30:50.225Z,15.17
2018-11-27T06:33:17.784Z,12.93
2018-11-27T06:35:45.262Z,12.07
2018-11-27T06:38:13.490Z,12.80
2018-11-27T06:40:41.003Z,15.23
2018-11-27T06:43:08.485Z,13.03
2018-11-27T06:45:36.775Z,13.83
2018-11-27T06:48:04.290Z,14.20
2018-11-27T06:50:31.755Z,15.83
2018-11-27T06:52:59.365Z,13.67
2018-11-27T06:55:26.828Z,15.80
2018-11-27T06:57:54.391Z,16.13
2018-11-27T07:00:21.900Z,14.27
2018-11-27T07:02:49.373Z,15.47
2018-11-27T07:05:16.831Z,15.33
2018-11-27T07:07:44.309Z,13.60
2018-11-27T07:10:11.855Z,16.13
2018-11-27T07:12:39.329Z,13.00
2018-11-27T07:15:06.867Z,14.87
2018-11-27T07:17:34.433Z,14.03
2018-11-27T07:20:01.897Z,13.47
2018-11-27T07:22:29.385Z,12.77
2018-11-27T07:24:56.848Z,14.63
2018-11-27T07:27:24.311Z,14.50
2018-11-27T07:29:52.569Z,15.13
2018-11-27T07:32:20.035Z,14.80
2018-11-27T07:34:47.521Z,15.53
2018-11-27T07:37:15.744Z,16.80
2018-11-27T07:39:43.223Z,14.40
2018-11-27T07:42:10.682Z,14.27
2018-11-27T07:44:38.258Z,14.40
2018-11-27T07:47:05.730Z,15.10
2018-11-27T07:49:33.324Z,14.13
2018-11-27T07:52:01.565Z,15.40
2018-11-27T07:54:29.134Z,16.47
2018-11-27T07:56:56.619Z,14.70
2018-11-27T07:59:24.895Z,18.57
2018-11-27T08:01:52.359Z,17.53
2018-11-27T08:04:20.628Z,17.73
2018-11-27T08:06:48.097Z,15.83
2018-11-27T08:09:16.358Z,16.57
2018-11-27T08:11:43.828Z,15.83
2018-11-27T08:14:11.294Z,16.43
2018-11-27T08:16:38.758Z,21.03
2018-11-27T08:19:06.313Z,18.17
2018-11-27T08:21:33.875Z,13.97
2018-11-27T08:24:01.333Z,18.03
2018-11-27T08:26:28.803Z,16.50
2018-11-27T08:28:56.264Z,16.97
2018-11-27T08:31:23.735Z,22.37
2018-11-27T08:33:51.803Z,18.37
2018-11-27T08:36:19.556Z,14.33
2018-11-27T08:38:47.137Z,22.60
2018-11-27T08:41:14.610Z,16.33
2018-11-27T08:43:42.863Z,14.83
2018-11-27T08:46:10.329Z,22.57
2018-11-27T08:48:37.788Z,20.50
2018-11-27T08:51:05.351Z,18.57
2018-11-27T08:53:32.920Z,15.73
2018-11-27T08:56:00.385Z,15.50
2018-11-27T08:58:27.871Z,20.20
2018-11-27T09:00:56.112Z,17.90
2018-11-27T09:03:23.580Z,15.60
2018-11-27T09:05:51.044Z,16.30
2018-11-27T09:08:19.327Z,16.00
2018-11-27T09:10:46.889Z,18.87
2018-11-27T09:13:14.624Z,19.43
2018-11-27T09:15:42.601Z,19.27
2018-11-27T09:18:10.082Z,19.53
2018-11-27T09:20:37.550Z,20.50
2018-11-27T09:23:05.040Z,18.53
2018-11-27T09:25:32.519Z,14.53
2018-11-27T09:28:00.741Z,18.33
2018-11-27T09:30:28.206Z,21.20
2018-11-27T09:32:55.783Z,14.40
2018-11-27T09:35:23.254Z,20.27
2018-11-27T09:37:50.738Z,14.47
2018-11-27T09:40:18.977Z,16.43
2018-11-27T09:42:46.443Z,17.07
2018-11-27T09:45:13.918Z,14.60
2018-11-27T09:47:42.140Z,19.93
2018-11-27T09:50:09.615Z,21.90
2018-11-27T09:52:37.102Z,19.47
2018-11-27T09:55:04.572Z,19.80
2018-11-27T09:57:32.061Z,18.27
2018-11-27T09:59:59.602Z,17.87
2018-11-27T10:02:27.073Z,17.93
2018-11-27T10:04:56.167Z,15.97
2018-11-27T10:07:25.131Z,15.23
2018-11-27T10:09:52.599Z,18.63
2018-11-27T10:12:20.071Z,18.20
2018-11-27T10:14:47.544Z,18.67
2018-11-27T10:17:15.007Z,17.73
2018-11-27T10:19:42.483Z,14.30
2018-11-27T10:22:10.026Z,13.77
2018-11-27T10:24:37.541Z,17.50
2018-11-27T10:27:04.974Z,18.13
2018-11-27T10:29:32.433Z,17.40
2018-11-27T10:31:59.917Z,18.27
2018-11-27T10:34:28.158Z,14.97
2018-11-27T10:36:55.627Z,16.90
2018-11-27T10:39:24.779Z,17.03
2018-11-27T10:41:52.239Z,17.83
2018-11-27T10:44:19.715Z,19.87
2018-11-27T10:46:47.180Z,17.40
2018-11-27T10:49:14.634Z,16.77
2018-11-27T10:51:42.127Z,15.93
2018-11-27T10:54:09.599Z,19.30
2018-11-27T10:56:37.070Z,17.63
2018-11-27T10:59:04.527Z,15.73
2018-11-27T11:01:32.034Z,19.77
2018-11-27T11:03:59.543Z,16.23
2018-11-27T11:06:27.103Z,17.07
2018-11-27T11:08:54.577Z,19.17
2018-11-27T11:11:22.048Z,15.67
2018-11-27T11:13:50.277Z,18.47
2018-11-27T11:16:17.745Z,17.77
2018-11-27T11:18:45.222Z,18.47
2018-11-27T11:21:13.415Z,17.35
2018-11-27T11:23:40.978Z,22.60
2018-11-27T11:26:10.027Z,25.47
2018-11-27T11:28:37.495Z,17.33
2018-11-27T11:31:04.995Z,18.97
2018-11-27T11:33:32.458Z,20.00
2018-11-27T11:35:59.943Z,20.17
2018-11-27T11:38:28.193Z,22.30
2018-11-27T11:40:55.655Z,18.93
2018-11-27T11:43:23.127Z,20.17
2018-11-27T11:45:51.964Z,18.07
2018-11-27T11:48:18.201Z,17.30
2018-11-27T11:50:45.678Z,17.10
2018-11-27T11:53:13.134Z,18.03
2018-11-27T11:55:40.951Z,16.77
2018-11-27T11:58:09.182Z,20.67
2018-11-27T12:00:36.642Z,20.93
2018-11-27T12:03:04.105Z,15.17
2018-11-27T12:05:31.562Z,17.10
2018-11-27T12:07:59.071Z,19.30
2018-11-27T12:10:26.560Z,19.87
2018-11-27T12:12:54.824Z,18.43
2018-11-27T12:15:22.395Z,18.87
2018-11-27T12:17:50.636Z,17.93
2018-11-27T12:20:18.101Z,21.00
2018-11-27T12:22:45.585Z,20.50
2018-11-27T12:25:13.835Z,16.33
2018-11-27T12:27:41.305Z,18.47
2018-11-27T12:30:08.796Z,22.90
2018-11-27T12:32:36.277Z,17.37
2018-11-27T12:35:04.627Z,19.48
2018-11-27T12:37:32.400Z,22.03
2018-11-27T12:39:59.968Z,17.20
2018-11-27T12:42:27.423Z,20.03
2018-11-27T12:44:54.899Z,21.83
2018-11-27T12:47:23.129Z,23.03
2018-11-27T12:49:50.943Z,22.00
2018-11-27T12:52:18.407Z,20.37
2018-11-27T12:54:47.387Z,20.33
2018-11-27T12:57:14.953Z,24.43
2018-11-27T12:59:42.516Z,17.83
2018-11-27T13:02:09.990Z,20.87
2018-11-27T13:04:37.450Z,18.87
2018-11-27T13:07:05.016Z,23.80
2018-11-27T13:09:32.473Z,23.00
2018-11-27T13:11:59.950Z,30.23
2018-11-27T13:14:27.415Z,28.17
2018-11-27T13:16:55.675Z,25.03
2018-11-27T13:19:24.324Z,29.53
2018-11-27T13:21:50.621Z,27.23
2018-11-27T13:24:18.855Z,24.17
2018-11-27T13:26:46.346Z,30.13
2018-11-27T13:29:13.826Z,30.23
2018-11-27T13:31:42.188Z,30.40
2018-11-27T13:34:09.754Z,24.07
2018-11-27T13:36:37.305Z,27.07
2018-11-27T13:41:58.024Z,38.45
2018-11-27T13:44:25.472Z,38.40
2018-11-27T13:46:52.948Z,29.00
2018-11-27T13:49:20.426Z,34.53
2018-11-27T13:51:48.668Z,23.57
2018-11-27T13:54:16.131Z,25.13
2018-11-27T13:56:43.663Z,30.23
2018-11-27T13:59:11.131Z,33.63
2018-11-27T14:01:38.589Z,29.10
2018-11-27T14:04:06.095Z,32.27
2018-11-27T14:06:33.549Z,34.20
2018-11-27T14:09:01.027Z,33.70
2018-11-27T14:11:28.485Z,35.40
2018-11-27T14:13:56.047Z,39.77
2018-11-27T14:16:23.621Z,33.37
2018-11-27T14:18:51.100Z,29.63
2018-11-27T14:21:18.555Z,33.70
2018-11-27T14:23:46.021Z,35.77
2018-11-27T14:26:14.288Z,32.25
2018-11-27T14:28:41.777Z,29.53
2018-11-27T14:31:10.546Z,37.07
2018-11-27T14:33:38.781Z,32.97
2018-11-27T14:36:06.259Z,33.90
2018-11-27T14:38:33.725Z,32.90
2018-11-27T14:41:01.273Z,30.67
2018-11-27T14:43:28.735Z,24.97
2018-11-27T14:45:56.274Z,33.17
2018-11-27T14:48:23.743Z,36.97
2018-11-27T14:50:51.202Z,35.23
2018-11-27T14:53:19.015Z,29.57
2018-11-27T14:55:46.595Z,36.10
2018-11-27T14:58:15.107Z,29.10
2018-11-27T15:00:42.331Z,28.20
2018-11-27T15:03:09.889Z,35.77
2018-11-27T15:05:37.451Z,40.07
2018-11-27T15:08:04.925Z,35.80
2018-11-27T15:10:32.486Z,35.20
2018-11-27T15:13:00.891Z,39.27
2018-11-27T15:15:29.139Z,40.97
2018-11-27T15:17:56.742Z,36.13
2018-11-27T15:20:25.138Z,36.10
2018-11-27T15:22:52.595Z,32.10
2018-11-27T15:25:20.078Z,32.88
2018-11-27T15:27:47.582Z,36.43
2018-11-27T15:30:15.969Z,41.23
2018-11-27T15:32:43.453Z,33.20
2018-11-27T15:35:11.700Z,35.63
2018-11-27T15:37:39.470Z,36.93
2018-11-27T15:40:06.932Z,40.17
2018-11-27T15:42:34.389Z,36.80
2018-11-27T15:45:01.865Z,42.70
2018-11-27T15:47:29.325Z,41.17
2018-11-27T15:49:56.918Z,37.63
2018-11-27T15:52:25.156Z,36.63
2018-11-27T15:54:52.603Z,38.97
2018-11-27T15:57:20.090Z,35.83
2018-11-27T15:59:47.567Z,39.07
2018-11-27T16:02:15.046Z,39.13
2018-11-27T16:04:43.286Z,40.73
2018-11-27T16:07:10.762Z,47.77
2018-11-27T16:09:38.219Z,44.87
2018-11-27T16:12:05.695Z,34.17
2018-11-27T16:14:33.235Z,40.37
2018-11-27T16:17:00.797Z,43.37
2018-11-27T16:19:29.805Z,40.03
2018-11-27T16:21:58.894Z,41.43
2018-11-27T16:24:26.357Z,43.53
2018-11-27T16:26:53.925Z,45.07
2018-11-27T16:29:21.394Z,45.27
2018-11-27T16:31:48.877Z,41.47
2018-11-27T16:34:17.113Z,44.97
2018-11-27T16:36:44.577Z,39.63
2018-11-27T16:39:12.059Z,40.90
2018-11-27T16:41:39.545Z,39.97
2018-11-27T16:44:07.010Z,43.70
2018-11-27T16:46:35.259Z,40.87
2018-11-27T16:49:04.398Z,39.97
2018-11-27T16:51:31.991Z,42.50
2018-11-27T16:53:59.427Z,43.60
2018-11-27T16:56:26.895Z,45.13
2018-11-27T16:58:54.367Z,42.83
2018-11-27T17:01:21.850Z,41.17
2018-11-27T17:03:49.433Z,42.07
2018-11-27T17:06:17.004Z,42.07
2018-11-27T17:08:44.464Z,44.80
2018-11-27T17:11:11.948Z,44.27
2018-11-27T17:13:40.184Z,41.50
2018-11-27T17:16:07.644Z,38.83
2018-11-27T17:18:35.110Z,39.67
2018-11-27T17:21:03.495Z,38.13
2018-11-27T17:23:31.074Z,35.40
2018-11-27T17:26:04.035Z,41.30
2018-11-27T17:28:26.915Z,39.60
2018-11-27T17:30:54.385Z,40.83
2018-11-27T17:33:23.482Z,40.77
2018-11-27T17:35:52.457Z,37.70
2018-11-27T17:38:19.936Z,42.83
2018-11-27T17:40:47.405Z,42.87
2018-11-27T17:43:14.872Z,39.27
2018-11-27T17:45:42.333Z,42.63
2018-11-27T17:48:09.811Z,38.07
2018-11-27T17:50:38.048Z,44.50
2018-11-27T17:53:05.621Z,42.63
2018-11-27T17:55:33.085Z,43.37
2018-11-27T17:58:00.551Z,51.67
2018-11-27T18:00:28.009Z,45.73
2018-11-27T18:02:55.473Z,43.47
2018-11-27T18:05:25.226Z,41.17
2018-11-27T18:07:52.744Z,41.77
2018-11-27T18:10:20.216Z,41.07
2018-11-27T18:12:47.681Z,41.17
2018-11-27T18:15:15.234Z,36.27
2018-11-27T18:17:42.701Z,44.33
2018-11-27T18:20:10.168Z,36.63
2018-11-27T18:22:37.632Z,43.47
2018-11-27T18:25:05.102Z,38.13
2018-11-27T18:27:33.334Z,45.33
2018-11-27T18:30:00.809Z,35.80
2018-11-27T18:32:28.290Z,36.57
2018-11-27T18:34:55.770Z,42.80
2018-11-27T18:37:24.015Z,35.23
2018-11-27T18:39:51.498Z,38.13
2018-11-27T18:42:18.978Z,40.67
2018-11-27T18:44:47.198Z,34.07
2018-11-27T18:47:14.673Z,34.53
2018-11-27T18:49:42.140Z,39.33
2018-11-27T18:52:09.601Z,33.77
2018-11-27T18:54:37.074Z,32.27
2018-11-27T18:57:04.649Z,34.30
2018-11-27T18:59:32.209Z,34.53
2018-11-27T19:01:59.679Z,38.13
2018-11-27T19:04:27.917Z,35.33
2018-11-27T19:06:55.372Z,34.83
2018-11-27T19:09:22.854Z,38.03
2018-11-27T19:11:50.334Z,38.67
2018-11-27T19:14:18.624Z,39.50
2018-11-27T19:16:46.122Z,37.53
2018-11-27T19:19:13.591Z,44.67
2018-11-27T19:21:41.412Z,39.33
2018-11-27T19:24:08.961Z,40.73
2018-11-27T19:26:36.530Z,41.07
2018-11-27T19:29:04.007Z,39.07
2018-11-27T19:31:32.238Z,35.57
2018-11-27T19:33:59.694Z,40.63
2018-11-27T19:36:27.177Z,45.43
2018-11-27T19:38:54.656Z,37.57
2018-11-27T19:41:22.221Z,36.93
2018-11-27T19:43:49.787Z,42.43
2018-11-27T19:46:17.264Z,43.13
2018-11-27T19:48:44.738Z,43.23
2018-11-27T19:51:12.970Z,43.53
2018-11-27T19:53:40.446Z,37.30
2018-11-27T19:56:08.014Z,43.67
2018-11-27T19:58:35.591Z,51.03
2018-11-27T20:01:03.987Z,40.47
2018-11-27T20:03:32.257Z,43.17
2018-11-27T20:05:59.806Z,42.43
2018-11-27T20:08:27.282Z,44.37
2018-11-27T20:10:55.510Z,36.73
2018-11-27T20:13:23.009Z,44.83
2018-11-27T20:15:50.478Z,45.90
2018-11-27T20:18:18.031Z,46.10
2018-11-27T20:20:45.446Z,42.67
2018-11-27T20:23:12.965Z,45.47
2018-11-27T20:25:40.431Z,43.87
2018-11-27T20:28:07.991Z,42.77
2018-11-27T20:30:35.481Z,40.00
2018-11-27T20:33:04.664Z,41.87
2018-11-27T20:35:32.231Z,37.00
2018-11-27T20:37:59.693Z,37.90
2018-11-27T20:40:28.145Z,44.70
2018-11-27T20:42:55.618Z,41.13
2018-11-27T20:45:23.177Z,39.43
2018-11-27T20:47:50.645Z,39.50
2018-11-27T20:50:18.362Z,39.73
2018-11-27T20:52:45.841Z,34.10
2018-11-27T20:55:13.310Z,33.83
2018-11-27T20:57:40.802Z,31.60
2018-11-27T21:00:09.050Z,35.17
2018-11-27T21:02:36.599Z,30.40
2018-11-27T21:05:05.515Z,35.47
2018-11-27T21:07:33.327Z,34.97
2018-11-27T21:10:00.791Z,30.63
2018-11-27T21:12:28.286Z,33.13
2018-11-27T21:14:58.376Z,29.63
2018-11-27T21:17:26.606Z,26.83
2018-11-27T21:19:54.065Z,27.00
2018-11-27T21:22:21.544Z,24.30
2018-11-27T21:24:49.036Z,26.70
2018-11-27T21:27:16.521Z,27.67
2018-11-27T21:29:43.998Z,27.43
2018-11-27T21:32:11.526Z,27.83
2018-11-27T21:34:39.777Z,24.30
2018-11-27T21:37:07.765Z,22.43
2018-11-27T21:39:36.018Z,26.47
2018-11-27T21:42:04.498Z,26.92
2018-11-27T21:44:31.971Z,23.33
2018-11-27T21:46:59.438Z,29.33
2018-11-27T21:49:26.940Z,25.23
2018-11-27T21:51:55.161Z,22.10
2018-11-27T21:54:22.704Z,25.20
2018-11-27T21:56:50.198Z,24.07
2018-11-27T21:59:17.701Z,23.43
2018-11-27T22:01:45.978Z,22.07
2018-11-27T22:04:14.222Z,20.13
2018-11-27T22:06:41.685Z,22.63
2018-11-27T22:09:09.171Z,19.03
2018-11-27T22:11:38.143Z,20.40
2018-11-27T22:14:05.643Z,19.40
2018-11-27T22:16:33.910Z,20.47
2018-11-27T22:19:01.467Z,20.47
2018-11-27T22:21:28.930Z,19.73
2018-11-27T22:23:56.426Z,20.23
2018-11-27T22:26:23.896Z,20.47
2018-11-27T22:28:51.414Z,20.33
2018-11-27T22:31:18.885Z,17.97
2018-11-27T22:33:46.354Z,17.00
2018-11-27T22:36:13.814Z,20.97
2018-11-27T22:38:42.059Z,18.13
2018-11-27T22:41:09.535Z,19.03
2018-11-27T22:43:38.024Z,21.23
2018-11-27T22:46:05.584Z,19.77
2018-11-27T22:48:33.054Z,17.30
2018-11-27T22:51:00.545Z,18.80
2018-11-27T22:53:28.068Z,20.23
2018-11-27T22:55:55.526Z,22.40
2018-11-27T22:58:23.001Z,19.40
2018-11-27T23:00:50.470Z,17.50
2018-11-27T23:03:17.942Z,16.73
2018-11-27T23:05:46.171Z,19.00
2018-11-27T23:08:13.622Z,14.83
2018-11-27T23:10:41.090Z,17.83
2018-11-27T23:13:08.569Z,17.57
2018-11-27T23:15:36.041Z,15.70
2018-11-27T23:18:04.593Z,18.25
2018-11-27T23:20:32.099Z,21.73
2018-11-27T23:22:59.563Z,17.43
2018-11-27T23:25:27.026Z,16.53
2018-11-27T23:27:55.296Z,16.13
2018-11-27T23:30:22.759Z,16.87
2018-11-27T23:32:50.262Z,19.87
2018-11-27T23:35:18.488Z,16.27
2018-11-27T23:37:45.970Z,16.93
2018-11-27T23:40:13.518Z,19.40
2018-11-27T23:42:40.992Z,18.60
2018-11-27T23:45:08.548Z,15.37
2018-11-27T23:47:36.006Z,15.60
2018-11-27T23:50:04.483Z,15.87
2018-11-27T23:52:31.968Z,16.43
2018-11-27T23:54:59.425Z,20.40
2018-11-27T23:57:27.664Z,20.83
2018-11-27T23:59:55.122Z,17.37
